Time;durP1;ratioP1;P1;durP2;ratioP2;P2;SDS_P1;SDS_P2;PMS_P1;PMS_P2;Temp;Humidity;BMP_temperature;BMP_pressure;BME280_temperature;BME280_humidity;BME280_pressure;Samples;Min_cycle;Max_cycle;Signal;HPM_P1;HPM_P2
2022/10/15 00:01:42;;;;;;;47.72;21.75;;;15.70;99.90;;;;;;5036000;28;25062;-74
2022/10/15 00:04:07;;;;;;;45.28;22.83;;;15.70;99.90;;;;;;5032469;28;25075;-73
2022/10/15 00:06:33;;;;;;;47.30;22.45;;;15.60;99.90;;;;;;5025970;28;25138;-75
2022/10/15 00:08:59;;;;;;;45.80;21.75;;;15.60;99.90;;;;;;5027619;28;25072;-72
2022/10/15 00:11:26;;;;;;;44.08;20.73;;;15.40;99.90;;;;;;5023962;28;25106;-73
2022/10/15 00:13:54;;;;;;;45.28;21.67;;;15.40;99.90;;;;;;5026207;28;25061;-73
2022/10/15 00:16:22;;;;;;;46.53;23.52;;;15.40;99.90;;;;;;5025769;28;25066;-75
2022/10/15 00:18:49;;;;;;;47.88;24.30;;;15.30;99.90;;;;;;5027278;28;25111;-74
2022/10/15 00:21:16;;;;;;;49.78;24.45;;;15.30;99.90;;;;;;5023061;28;25054;-73
2022/10/15 00:23:42;;;;;;;50.03;24.17;;;15.20;99.90;;;;;;5025701;28;25046;-76
2022/10/15 00:26:11;;;;;;;54.60;25.25;;;15.20;99.90;;;;;;5015946;28;25075;-73
2022/10/15 00:28:37;;;;;;;45.72;22.92;;;15.30;99.90;;;;;;5024733;28;25095;-72
2022/10/15 00:31:15;;;;;;;43.10;23.30;;;15.20;99.90;;;;;;5026371;28;25076;-73
2022/10/15 00:33:41;;;;;;;50.15;24.98;;;15.30;99.90;;;;;;5026045;28;25127;-75
2022/10/15 00:36:15;;;;;;;57.72;25.63;;;15.30;99.90;;;;;;5024962;28;25141;-74
2022/10/15 00:38:41;;;;;;;51.10;23.73;;;15.30;99.90;;;;;;5026952;28;25126;-75
2022/10/15 00:41:13;;;;;;;56.60;24.77;;;15.40;99.90;;;;;;5027789;28;25069;-74
2022/10/15 00:43:41;;;;;;;52.17;24.67;;;15.30;99.90;;;;;;5022831;28;25169;-73
2022/10/15 00:46:18;;;;;;;52.45;25.08;;;15.40;99.90;;;;;;5026678;28;25181;-74
2022/10/15 00:48:47;;;;;;;55.05;25.00;;;15.40;99.90;;;;;;5020224;28;25076;-74
2022/10/15 00:51:13;;;;;;;47.50;23.85;;;15.40;99.90;;;;;;5026429;28;25158;-76
2022/10/15 00:53:39;;;;;;;51.03;22.77;;;15.50;99.90;;;;;;5019731;28;25078;-74
2022/10/15 00:56:06;;;;;;;53.38;25.35;;;15.50;99.90;;;;;;5026891;28;25157;-74
2022/10/15 00:58:34;;;;;;;46.00;23.67;;;15.50;99.90;;;;;;5026523;28;25100;-74
2022/10/15 01:01:00;;;;;;;43.47;23.08;;;15.50;99.90;;;;;;5026908;28;25140;-73
2022/10/15 01:03:26;;;;;;;56.63;24.30;;;15.50;99.90;;;;;;5027582;28;25080;-74
2022/10/15 01:05:52;;;;;;;49.90;23.27;;;15.60;99.90;;;;;;5026525;28;25083;-75
2022/10/15 01:08:18;;;;;;;39.80;21.25;;;15.60;99.90;;;;;;5028162;28;25071;-73
2022/10/15 01:10:48;;;;;;;46.00;23.05;;;15.50;99.90;;;;;;5029822;28;25137;-75
2022/10/15 01:13:45;;;;;;;49.88;22.85;;;15.40;99.90;;;;;;5024362;28;25072;-75
2022/10/15 01:16:40;;;;;;;47.17;22.67;;;15.50;99.90;;;;;;5028850;28;25084;-73
2022/10/15 01:19:21;;;;;;;47.92;22.80;;;15.50;99.90;;;;;;5027862;28;25060;-74
2022/10/15 01:21:59;;;;;;;49.58;22.42;;;15.50;99.90;;;;;;5031788;28;25068;-75
2022/10/15 01:24:31;;;;;;;42.97;21.85;;;15.40;99.90;;;;;;5029303;28;25091;-72
2022/10/15 01:27:34;;;;;;;53.47;24.80;;;15.40;99.90;;;;;;5032060;28;25088;-73
2022/10/15 01:30:04;;;;;;;42.15;22.45;;;15.40;99.90;;;;;;5023709;28;25093;-73
2022/10/15 01:32:48;;;;;;;44.88;22.38;;;15.50;99.90;;;;;;5014366;28;25131;-73
2022/10/15 01:35:34;;;;;;;42.10;22.83;;;15.50;99.90;;;;;;5027452;28;25093;-72
2022/10/15 01:38:08;;;;;;;40.97;21.20;;;15.50;99.90;;;;;;5036195;28;25057;-74
2022/10/15 01:40:57;;;;;;;38.60;21.98;;;15.50;99.90;;;;;;5037345;28;25117;-73
2022/10/15 01:43:43;;;;;;;46.83;22.77;;;15.60;99.90;;;;;;5027801;28;25070;-76
2022/10/15 01:46:19;;;;;;;44.15;21.33;;;15.50;99.90;;;;;;5043427;28;25150;-75
2022/10/15 01:48:45;;;;;;;42.45;22.55;;;15.40;99.90;;;;;;5042429;28;25075;-76
2022/10/15 01:51:13;;;;;;;42.53;22.00;;;15.50;99.90;;;;;;5031944;28;25085;-75
2022/10/15 01:53:40;;;;;;;46.42;22.05;;;15.40;99.90;;;;;;5029921;28;25088;-74
2022/10/15 01:56:10;;;;;;;42.42;21.92;;;15.50;99.90;;;;;;5035340;28;25268;-73
2022/10/15 01:58:42;;;;;;;37.60;20.70;;;15.50;99.90;;;;;;5017583;28;25043;-75
2022/10/15 02:01:07;;;;;;;44.55;22.55;;;15.50;99.90;;;;;;5028482;28;25070;-73
2022/10/15 02:03:49;;;;;;;42.17;21.83;;;15.60;99.90;;;;;;5031462;28;25108;-75
2022/10/15 02:06:28;;;;;;;30.58;18.75;;;15.70;99.90;;;;;;5037108;28;25054;-73
2022/10/15 02:09:27;;;;;;;39.63;20.63;;;15.60;99.90;;;;;;5033089;28;25081;-74
2022/10/15 02:12:06;;;;;;;39.25;20.85;;;15.60;99.90;;;;;;4983957;28;25070;-73
2022/10/15 02:14:53;;;;;;;37.33;21.15;;;15.60;99.90;;;;;;5030849;28;25086;-73
2022/10/15 02:17:28;;;;;;;41.22;23.08;;;15.60;99.90;;;;;;5029828;28;25114;-74
2022/10/15 02:20:14;;;;;;;47.00;22.40;;;15.50;99.90;;;;;;5030168;28;25065;-73
2022/10/15 02:23:03;;;;;;;42.53;20.77;;;15.60;99.90;;;;;;5033168;28;25142;-75
2022/10/15 02:25:29;;;;;;;43.10;22.08;;;15.80;99.90;;;;;;5021604;28;25096;-73
2022/10/15 02:27:57;;;;;;;40.58;21.85;;;15.70;99.90;;;;;;5033775;28;25076;-75
2022/10/15 02:30:23;;;;;;;40.70;21.92;;;15.70;99.90;;;;;;5034751;28;25130;-74
2022/10/15 02:32:52;;;;;;;43.80;22.60;;;15.70;99.90;;;;;;5022544;28;25063;-74
2022/10/15 02:35:19;;;;;;;41.47;22.10;;;15.70;99.90;;;;;;5023231;28;25009;-75
2022/10/15 02:37:51;;;;;;;46.67;24.25;;;15.70;99.90;;;;;;5028571;28;25151;-74
2022/10/15 02:40:17;;;;;;;48.75;24.55;;;15.70;99.90;;;;;;5009919;28;25142;-74
2022/10/15 02:42:43;;;;;;;44.60;23.55;;;15.60;99.90;;;;;;5028225;28;25094;-74
2022/10/15 02:45:08;;;;;;;41.83;23.15;;;15.70;99.90;;;;;;5026458;28;25094;-73
2022/10/15 02:47:34;;;;;;;45.50;22.90;;;15.70;99.90;;;;;;5009890;28;25077;-74
2022/10/15 02:49:59;;;;;;;44.80;21.50;;;15.70;99.90;;;;;;5024286;28;25084;-74
2022/10/15 02:52:25;;;;;;;41.78;22.35;;;15.60;99.90;;;;;;5030634;28;25080;-73
2022/10/15 02:54:51;;;;;;;43.40;23.48;;;15.60;99.90;;;;;;5030425;28;25084;-74
2022/10/15 02:57:16;;;;;;;39.15;21.73;;;15.60;99.90;;;;;;5031401;28;25055;-73
2022/10/15 02:59:42;;;;;;;47.40;25.10;;;15.60;99.90;;;;;;5030051;28;25059;-75
2022/10/15 03:02:07;;;;;;;39.92;23.08;;;15.60;99.90;;;;;;5030214;28;25120;-74
2022/10/15 03:04:33;;;;;;;50.80;24.42;;;15.60;99.90;;;;;;5036168;28;25074;-74
2022/10/15 03:06:58;;;;;;;44.30;23.35;;;15.50;99.90;;;;;;5027633;28;25062;-74
2022/10/15 03:09:24;;;;;;;40.45;22.98;;;15.50;99.90;;;;;;5026657;28;25115;-74
2022/10/15 03:11:49;;;;;;;42.88;23.45;;;15.50;99.90;;;;;;5027981;28;25063;-73
2022/10/15 03:14:15;;;;;;;43.83;23.35;;;15.40;99.90;;;;;;5028509;28;25056;-73
2022/10/15 03:16:40;;;;;;;47.78;23.52;;;15.40;99.90;;;;;;5026492;28;25053;-74
2022/10/15 03:19:06;;;;;;;39.40;22.38;;;15.40;99.90;;;;;;5021396;28;25107;-75
2022/10/15 03:21:32;;;;;;;48.20;25.88;;;15.40;99.90;;;;;;5028625;28;25066;-73
2022/10/15 03:23:58;;;;;;;42.35;22.38;;;15.40;99.90;;;;;;5021118;28;25052;-72
2022/10/15 03:26:23;;;;;;;50.85;25.45;;;15.30;99.90;;;;;;5022937;28;25124;-73
2022/10/15 03:28:49;;;;;;;47.47;22.92;;;15.30;99.90;;;;;;5026280;28;25062;-72
2022/10/15 03:31:15;;;;;;;51.83;26.35;;;15.30;99.90;;;;;;5022364;28;25078;-74
2022/10/15 03:33:40;;;;;;;45.03;23.55;;;15.30;99.90;;;;;;5024826;28;25080;-73
2022/10/15 03:36:06;;;;;;;40.95;23.05;;;15.30;99.90;;;;;;5025365;28;25169;-73
2022/10/15 03:38:32;;;;;;;48.45;24.33;;;15.30;99.90;;;;;;5029480;28;25064;-75
2022/10/15 03:40:58;;;;;;;51.50;25.77;;;15.30;99.90;;;;;;5031574;28;25084;-74
2022/10/15 03:43:24;;;;;;;52.75;25.83;;;15.30;99.90;;;;;;5029985;28;25065;-74
2022/10/15 03:45:50;;;;;;;46.53;25.20;;;15.30;99.90;;;;;;5020795;28;25045;-75
2022/10/15 03:48:16;;;;;;;50.38;24.27;;;15.40;99.90;;;;;;5028139;28;25067;-75
2022/10/15 03:50:41;;;;;;;46.47;25.83;;;15.40;99.90;;;;;;5022578;28;25077;-73
2022/10/15 03:53:07;;;;;;;55.67;26.48;;;15.30;99.90;;;;;;5020675;28;25106;-73
2022/10/15 03:55:32;;;;;;;48.33;25.10;;;15.30;99.90;;;;;;5020075;28;25072;-74
2022/10/15 03:57:58;;;;;;;47.70;25.45;;;15.20;99.90;;;;;;5027180;28;25161;-73
2022/10/15 04:00:24;;;;;;;53.08;25.38;;;15.20;99.90;;;;;;5032077;28;25077;-74
2022/10/15 04:02:49;;;;;;;50.53;25.15;;;15.20;99.90;;;;;;5032653;28;25089;-73
2022/10/15 04:05:15;;;;;;;48.35;25.58;;;15.20;99.90;;;;;;5030366;28;25060;-74
2022/10/15 04:07:41;;;;;;;56.25;26.88;;;15.30;99.90;;;;;;5025300;28;25065;-73
2022/10/15 04:10:07;;;;;;;51.65;25.13;;;15.20;99.90;;;;;;5027500;28;25158;-74
2022/10/15 04:12:33;;;;;;;52.88;25.13;;;15.20;99.90;;;;;;5027705;28;25172;-73
2022/10/15 04:14:58;;;;;;;46.53;24.23;;;15.30;99.90;;;;;;5026306;28;25106;-73
2022/10/15 04:17:24;;;;;;;46.15;24.40;;;15.30;99.90;;;;;;5027378;28;25071;-73
2022/10/15 04:19:50;;;;;;;53.20;25.45;;;15.40;99.90;;;;;;5020480;28;25071;-73
2022/10/15 04:22:15;;;;;;;52.15;26.13;;;15.30;99.90;;;;;;5031575;28;25096;-75
2022/10/15 04:24:41;;;;;;;51.40;26.42;;;15.40;99.90;;;;;;5043699;28;25071;-76
2022/10/15 04:27:06;;;;;;;53.45;26.27;;;15.40;99.90;;;;;;5031977;28;25058;-75
2022/10/15 04:29:32;;;;;;;52.53;26.15;;;15.40;99.90;;;;;;5034778;28;25048;-73
2022/10/15 04:31:58;;;;;;;49.78;24.92;;;15.40;99.90;;;;;;5052862;28;25075;-74
2022/10/15 04:34:24;;;;;;;60.25;27.45;;;15.40;99.90;;;;;;5049054;28;25095;-73
2022/10/15 04:36:49;;;;;;;52.92;26.15;;;15.50;99.90;;;;;;5030646;28;25078;-76
2022/10/15 04:39:15;;;;;;;56.20;25.42;;;15.40;99.90;;;;;;5039682;28;25113;-77
2022/10/15 04:41:41;;;;;;;59.17;26.90;;;15.50;99.90;;;;;;5037296;28;25123;-73
2022/10/15 04:44:06;;;;;;;51.97;25.02;;;15.50;99.90;;;;;;5029828;28;25132;-73
2022/10/15 04:46:32;;;;;;;54.42;26.00;;;15.60;99.90;;;;;;5029305;28;25173;-73
2022/10/15 04:48:57;;;;;;;65.10;28.17;;;15.70;99.90;;;;;;5042619;28;25085;-73
2022/10/15 04:51:25;;;;;;;58.40;27.50;;;15.70;99.90;;;;;;5039288;28;25075;-74
2022/10/15 04:53:51;;;;;;;73.78;30.52;;;15.70;99.90;;;;;;5043415;28;25087;-75
2022/10/15 04:56:20;;;;;;;62.03;29.52;;;15.80;99.90;;;;;;5038062;28;25071;-73
2022/10/15 04:58:47;;;;;;;59.83;29.13;;;15.70;99.90;;;;;;5027403;28;25104;-70
2022/10/15 05:01:16;;;;;;;64.20;27.67;;;15.70;99.90;;;;;;5017316;28;25083;-73
2022/10/15 05:03:43;;;;;;;67.63;30.00;;;15.70;99.90;;;;;;5018459;28;25050;-74
2022/10/15 05:06:11;;;;;;;63.50;27.55;;;15.80;99.90;;;;;;5020326;28;25116;-73
2022/10/15 05:08:40;;;;;;;70.93;30.92;;;16.00;99.90;;;;;;5024214;28;25140;-73
2022/10/15 05:11:10;;;;;;;61.22;29.02;;;15.90;99.90;;;;;;5030664;28;25119;-76
2022/10/15 05:13:36;;;;;;;66.68;29.77;;;16.00;99.90;;;;;;5017061;28;25087;-73
2022/10/15 05:16:15;;;;;;;61.60;27.25;;;16.00;99.90;;;;;;5018699;28;25087;-73
2022/10/15 05:18:43;;;;;;;62.63;28.42;;;16.00;99.90;;;;;;4999169;28;25060;-73
2022/10/15 05:21:09;;;;;;;60.20;28.98;;;15.80;99.90;;;;;;5016304;28;25066;-74
2022/10/15 05:23:36;;;;;;;60.15;26.50;;;15.70;99.90;;;;;;5017829;28;25054;-75
2022/10/15 05:26:04;;;;;;;69.38;28.65;;;15.80;99.90;;;;;;5017981;28;25093;-73
2022/10/15 05:28:30;;;;;;;67.22;29.67;;;15.80;99.90;;;;;;5021310;28;25098;-73
2022/10/15 05:30:56;;;;;;;69.78;29.33;;;15.70;99.90;;;;;;5023281;28;25051;-73
2022/10/15 05:33:22;;;;;;;60.58;26.52;;;15.70;99.90;;;;;;5001299;28;25069;-73
2022/10/15 05:35:47;;;;;;;62.83;26.95;;;15.60;99.90;;;;;;5009965;28;25079;-72
2022/10/15 05:38:13;;;;;;;59.60;24.70;;;15.70;99.90;;;;;;5016571;28;25059;-73
2022/10/15 05:40:38;;;;;;;59.83;26.85;;;15.80;99.90;;;;;;5023874;28;25103;-74
2022/10/15 05:43:04;;;;;;;50.45;23.90;;;15.80;99.90;;;;;;5028354;28;25121;-75
2022/10/15 05:45:29;;;;;;;59.30;28.15;;;15.90;99.90;;;;;;5024763;28;25086;-73
2022/10/15 05:47:55;;;;;;;55.45;24.83;;;15.90;99.90;;;;;;5022403;28;25107;-73
2022/10/15 05:50:21;;;;;;;59.30;25.65;;;16.10;99.90;;;;;;5021700;28;25066;-72
2022/10/15 05:52:47;;;;;;;61.97;26.08;;;16.00;99.90;;;;;;5017443;28;25060;-74
2022/10/15 05:55:13;;;;;;;50.47;24.55;;;16.10;99.90;;;;;;5022131;28;25057;-76
2022/10/15 05:57:38;;;;;;;49.30;25.00;;;15.90;99.90;;;;;;5015834;28;25068;-74
2022/10/15 06:00:06;;;;;;;56.85;25.98;;;15.90;99.90;;;;;;5017265;28;25086;-73
2022/10/15 06:02:31;;;;;;;82.85;31.27;;;16.00;99.90;;;;;;5021918;28;25160;-74
2022/10/15 06:04:57;;;;;;;66.55;29.77;;;16.00;99.90;;;;;;5022667;28;25072;-74
2022/10/15 06:07:22;;;;;;;96.03;33.63;;;15.90;99.90;;;;;;5022240;28;25134;-74
2022/10/15 06:09:48;;;;;;;109.60;34.35;;;15.90;99.90;;;;;;5021327;28;25171;-73
2022/10/15 06:12:14;;;;;;;127.95;36.22;;;15.80;99.90;;;;;;5021151;28;25095;-72
2022/10/15 06:14:39;;;;;;;100.65;33.85;;;15.90;99.90;;;;;;5018361;28;25161;-74
2022/10/15 06:17:05;;;;;;;93.95;33.05;;;15.90;99.90;;;;;;5036672;28;25051;-75
2022/10/15 06:19:30;;;;;;;113.25;34.65;;;16.00;99.90;;;;;;5022440;28;25070;-72
2022/10/15 06:21:56;;;;;;;133.77;35.40;;;16.00;99.90;;;;;;5026614;28;25103;-72
2022/10/15 06:24:22;;;;;;;126.03;36.40;;;16.00;99.90;;;;;;5022000;28;25068;-75
2022/10/15 06:26:48;;;;;;;128.80;36.88;;;16.10;99.90;;;;;;5021189;28;25074;-72
2022/10/15 06:29:13;;;;;;;123.25;35.65;;;16.10;99.90;;;;;;5028363;28;25084;-73
2022/10/15 06:31:39;;;;;;;103.18;33.35;;;16.20;99.90;;;;;;5007537;28;25127;-75
2022/10/15 06:34:04;;;;;;;100.32;34.67;;;16.20;99.90;;;;;;5027544;28;25045;-73
2022/10/15 06:36:30;;;;;;;104.13;32.38;;;16.20;99.90;;;;;;5028687;28;25148;-70
2022/10/15 06:38:55;;;;;;;94.18;31.50;;;16.30;99.90;;;;;;5017965;28;25123;-74
2022/10/15 06:41:21;;;;;;;109.10;33.97;;;16.40;99.90;;;;;;5027323;28;25075;-74
2022/10/15 06:43:49;;;;;;;87.72;28.45;;;16.50;99.90;;;;;;5026635;28;25070;-75
2022/10/15 06:46:16;;;;;;;84.95;28.45;;;16.50;99.90;;;;;;5025583;28;25209;-73
2022/10/15 06:48:41;;;;;;;90.53;28.35;;;16.50;99.90;;;;;;5029260;28;25077;-72
2022/10/15 06:51:07;;;;;;;61.28;23.73;;;16.60;99.90;;;;;;5035837;28;25081;-73
2022/10/15 06:53:33;;;;;;;60.92;24.40;;;16.70;99.90;;;;;;5031266;28;25068;-73
2022/10/15 06:56:00;;;;;;;60.00;22.85;;;16.80;99.90;;;;;;5031769;28;25062;-74
2022/10/15 06:58:26;;;;;;;52.25;22.60;;;16.90;99.90;;;;;;5009638;28;25073;-75
2022/10/15 07:00:52;;;;;;;54.35;22.10;;;16.90;99.90;;;;;;5019150;28;25103;-76
2022/10/15 07:03:18;;;;;;;42.53;19.20;;;16.90;99.90;;;;;;5016883;28;25069;-73
2022/10/15 07:05:43;;;;;;;56.38;23.25;;;17.00;99.90;;;;;;5007790;28;25060;-74
2022/10/15 07:08:09;;;;;;;50.10;22.50;;;17.00;99.90;;;;;;5024053;28;25107;-74
2022/10/15 07:10:34;;;;;;;54.72;20.02;;;17.00;99.90;;;;;;5021254;28;24892;-76
2022/10/15 07:13:01;;;;;;;52.25;21.40;;;17.00;99.90;;;;;;5022797;28;25057;-73
2022/10/15 07:15:27;;;;;;;47.90;20.40;;;17.00;99.90;;;;;;5025929;28;25081;-73
2022/10/15 07:18:00;;;;;;;51.33;21.40;;;17.10;99.90;;;;;;4998878;28;25049;-76
2022/10/15 07:20:29;;;;;;;50.47;19.92;;;17.20;99.90;;;;;;5015562;28;25074;-74
2022/10/15 07:22:57;;;;;;;42.45;18.52;;;17.20;99.90;;;;;;5015651;28;25079;-72
2022/10/15 07:25:23;;;;;;;43.95;18.63;;;17.30;99.90;;;;;;5017281;28;25089;-73
2022/10/15 07:27:48;;;;;;;40.33;18.05;;;17.30;99.90;;;;;;5019952;28;25088;-74
2022/10/15 07:30:14;;;;;;;35.28;16.25;;;17.40;99.90;;;;;;5018026;28;25056;-75
2022/10/15 07:32:39;;;;;;;36.30;16.98;;;17.60;99.90;;;;;;5017228;28;25072;-75
2022/10/15 07:35:06;;;;;;;37.85;17.08;;;17.80;99.90;;;;;;5019962;28;25110;-75
2022/10/15 07:37:31;;;;;;;42.47;16.50;;;17.70;99.90;;;;;;5001028;28;25065;-73
2022/10/15 07:39:57;;;;;;;36.47;16.15;;;17.70;99.90;;;;;;5017445;28;25153;-73
2022/10/15 07:42:23;;;;;;;31.58;14.25;;;17.80;99.90;;;;;;5018261;28;25062;-74
2022/10/15 07:44:48;;;;;;;32.13;15.25;;;17.80;99.90;;;;;;5021076;28;25103;-75
2022/10/15 07:47:14;;;;;;;34.17;17.45;;;18.00;99.90;;;;;;5021374;28;25155;-73
2022/10/15 07:49:39;;;;;;;35.40;16.20;;;18.00;99.90;;;;;;5018907;28;25064;-73
2022/10/15 07:52:07;;;;;;;31.40;15.02;;;18.00;99.90;;;;;;5023687;28;25071;-75
2022/10/15 07:54:33;;;;;;;33.40;14.90;;;18.00;99.90;;;;;;5022914;28;25108;-73
2022/10/15 07:56:58;;;;;;;32.03;14.27;;;18.00;99.90;;;;;;5020437;28;25128;-73
2022/10/15 07:59:24;;;;;;;30.85;15.32;;;17.90;99.90;;;;;;5022764;28;25104;-73
2022/10/15 08:01:50;;;;;;;29.30;13.70;;;17.70;99.90;;;;;;5024336;28;25052;-75
2022/10/15 08:04:16;;;;;;;28.77;14.43;;;17.70;99.90;;;;;;5025825;28;25062;-75
2022/10/15 08:06:41;;;;;;;27.55;13.60;;;17.80;99.90;;;;;;5023681;28;25086;-75
2022/10/15 08:09:07;;;;;;;26.80;13.73;;;17.90;99.90;;;;;;5028214;28;25088;-75
2022/10/15 08:11:33;;;;;;;30.92;13.32;;;17.90;99.90;;;;;;5022001;28;25063;-74
2022/10/15 08:13:58;;;;;;;27.05;13.25;;;18.00;99.90;;;;;;5020643;28;25066;-74
2022/10/15 08:16:24;;;;;;;32.70;15.88;;;17.90;99.90;;;;;;5021891;28;25064;-74
2022/10/15 08:18:50;;;;;;;24.52;12.82;;;17.80;99.90;;;;;;5019051;28;25086;-74
2022/10/15 08:21:15;;;;;;;24.52;12.05;;;17.70;99.90;;;;;;5020787;28;25141;-73
2022/10/15 08:23:41;;;;;;;30.45;14.00;;;17.90;99.90;;;;;;5011962;28;25049;-74
2022/10/15 08:26:07;;;;;;;27.05;13.73;;;17.80;99.90;;;;;;5026930;28;25071;-71
2022/10/15 08:28:34;;;;;;;25.95;13.80;;;17.90;99.90;;;;;;5015993;28;25066;-73
2022/10/15 08:31:04;;;;;;;29.13;14.60;;;17.60;99.90;;;;;;5004169;28;25097;-75
2022/10/15 08:33:30;;;;;;;29.35;13.70;;;17.60;99.90;;;;;;5017910;28;25267;-73
2022/10/15 08:35:56;;;;;;;26.60;13.32;;;17.60;99.90;;;;;;5022537;28;25095;-74
2022/10/15 08:38:21;;;;;;;24.42;13.68;;;17.60;99.90;;;;;;5022166;28;25059;-74
2022/10/15 08:40:48;;;;;;;24.85;13.25;;;17.70;99.90;;;;;;5026131;28;25131;-76
2022/10/15 08:43:39;;;;;;;25.63;13.23;;;17.70;99.90;;;;;;5027079;28;25098;-75
2022/10/15 08:46:34;;;;;;;24.45;12.10;;;17.60;99.90;;;;;;5015345;28;25055;-73
2022/10/15 08:49:01;;;;;;;19.25;11.02;;;17.60;99.90;;;;;;5020330;28;25058;-72
2022/10/15 08:51:39;;;;;;;23.38;12.10;;;17.50;99.90;;;;;;5026268;28;25051;-74
2022/10/15 08:54:08;;;;;;;20.27;10.65;;;17.70;99.90;;;;;;5015833;28;25092;-73
2022/10/15 08:56:42;;;;;;;20.27;10.38;;;17.80;99.90;;;;;;5020903;28;25103;-73
2022/10/15 08:59:16;;;;;;;22.00;10.68;;;17.90;99.90;;;;;;5015963;28;25071;-74
2022/10/15 09:01:50;;;;;;;24.25;10.85;;;17.90;99.90;;;;;;5022264;28;25063;-73
2022/10/15 09:04:45;;;;;;;22.42;10.43;;;17.90;99.90;;;;;;5020975;28;25082;-74
2022/10/15 09:07:22;;;;;;;21.85;10.23;;;17.70;99.90;;;;;;5016996;28;25160;-73
2022/10/15 09:09:52;;;;;;;17.02;8.90;;;17.60;99.90;;;;;;5022148;28;25097;-74
2022/10/15 09:12:44;;;;;;;22.02;10.50;;;17.50;99.90;;;;;;5021327;28;25047;-74
2022/10/15 09:15:15;;;;;;;19.85;10.27;;;17.50;99.90;;;;;;5024386;28;25075;-73
2022/10/15 09:17:43;;;;;;;22.25;9.80;;;17.80;99.90;;;;;;5007135;28;25143;-72
2022/10/15 09:20:35;;;;;;;22.42;10.15;;;17.50;99.90;;;;;;5025219;28;25092;-73
2022/10/15 09:23:01;;;;;;;25.35;11.35;;;17.60;99.90;;;;;;5016132;28;25195;-74
2022/10/15 09:25:36;;;;;;;26.13;11.40;;;17.60;99.90;;;;;;5017159;28;25074;-72
2022/10/15 09:28:11;;;;;;;28.80;11.52;;;17.70;99.90;;;;;;5022629;28;25063;-74
2022/10/15 09:30:49;;;;;;;32.13;12.30;;;17.80;99.90;;;;;;5019358;28;25090;-72
2022/10/15 09:33:49;;;;;;;27.92;12.30;;;17.90;99.90;;;;;;5023021;28;25058;-75
2022/10/15 09:36:38;;;;;;;29.08;12.00;;;18.10;99.90;;;;;;5020903;28;25098;-74
2022/10/15 09:39:28;;;;;;;24.55;11.05;;;18.10;99.90;;;;;;5017827;28;25091;-74
2022/10/15 09:42:29;;;;;;;24.00;12.02;;;18.20;99.90;;;;;;5026298;28;25101;-73
2022/10/15 09:45:02;;;;;;;31.63;13.07;;;18.20;99.90;;;;;;5011555;28;25056;-73
2022/10/15 09:47:33;;;;;;;25.50;11.82;;;18.20;99.90;;;;;;5012597;28;25069;-74
2022/10/15 09:50:00;;;;;;;33.15;13.20;;;18.30;99.90;;;;;;5015901;28;25077;-74
2022/10/15 09:52:38;;;;;;;24.23;12.18;;;18.30;99.90;;;;;;5021952;28;25069;-74
2022/10/15 09:55:18;;;;;;;25.15;12.18;;;18.40;99.90;;;;;;5029529;28;25159;-76
2022/10/15 09:57:50;;;;;;;24.23;11.52;;;18.30;99.90;;;;;;5031606;28;25070;-74
2022/10/15 10:00:16;;;;;;;19.70;9.77;;;18.10;99.90;;;;;;5025583;28;25076;-73
2022/10/15 10:02:41;;;;;;;21.58;10.80;;;18.20;99.90;;;;;;5011994;28;25180;-73
2022/10/15 10:05:30;;;;;;;19.13;9.27;;;18.10;99.90;;;;;;5026719;28;25093;-71
2022/10/15 10:08:21;;;;;;;26.02;10.52;;;18.10;99.90;;;;;;5023754;28;25190;-73
2022/10/15 10:11:05;;;;;;;25.15;10.88;;;18.10;99.90;;;;;;5022973;28;24878;-73
2022/10/15 10:13:34;;;;;;;23.20;10.45;;;18.10;99.90;;;;;;5021131;28;25130;-75
2022/10/15 10:16:04;;;;;;;24.15;10.65;;;18.10;99.90;;;;;;5033192;28;25072;-75
2022/10/15 10:18:31;;;;;;;22.23;10.65;;;18.30;99.90;;;;;;5033624;28;25118;-76
2022/10/15 10:21:02;;;;;;;24.77;10.18;;;18.40;99.90;;;;;;5008863;28;25108;-74
2022/10/15 10:23:37;;;;;;;17.98;9.07;;;18.30;99.90;;;;;;5005921;28;25080;-74
2022/10/15 10:26:05;;;;;;;18.92;9.73;;;18.40;99.90;;;;;;5024314;28;25154;-73
2022/10/15 10:28:43;;;;;;;20.40;9.85;;;18.60;99.90;;;;;;5026924;28;25061;-74
2022/10/15 10:31:09;;;;;;;20.90;9.35;;;18.60;99.90;;;;;;5010114;28;25111;-74
2022/10/15 10:33:41;;;;;;;18.13;9.10;;;18.80;99.90;;;;;;5025578;28;25026;-75
2022/10/15 10:36:18;;;;;;;17.77;8.38;;;18.80;99.90;;;;;;5022174;28;25064;-74
2022/10/15 10:38:55;;;;;;;18.70;7.95;;;18.60;99.90;;;;;;5028266;28;25117;-74
2022/10/15 10:41:20;;;;;;;14.32;7.40;;;18.80;99.90;;;;;;5027116;28;25098;-74
2022/10/15 10:43:54;;;;;;;19.50;8.05;;;18.90;99.90;;;;;;5027568;28;25110;-74
2022/10/15 10:46:23;;;;;;;14.77;7.03;;;19.00;99.90;;;;;;5022960;28;25048;-74
2022/10/15 10:48:50;;;;;;;13.50;6.82;;;19.10;99.90;;;;;;5022985;28;25082;-72
2022/10/15 10:51:18;;;;;;;13.90;6.45;;;19.20;99.90;;;;;;5005341;28;25122;-76
2022/10/15 10:53:58;;;;;;;16.63;6.78;;;19.30;99.90;;;;;;5024043;28;25063;-74
2022/10/15 10:56:35;;;;;;;12.93;6.65;;;19.40;99.90;;;;;;5029124;28;25080;-73
2022/10/15 10:59:31;;;;;;;12.88;6.22;;;19.50;99.90;;;;;;5024539;28;25134;-74
2022/10/15 11:01:57;;;;;;;12.10;6.68;;;19.60;99.90;;;;;;5021095;28;25071;-74
2022/10/15 11:04:27;;;;;;;13.88;7.05;;;19.60;99.90;;;;;;5025455;28;25047;-74
2022/10/15 11:07:08;;;;;;;14.10;7.32;;;19.70;99.90;;;;;;5025251;28;25165;-74
2022/10/15 11:09:57;;;;;;;9.70;6.38;;;19.70;99.90;;;;;;5024369;28;25150;-75
2022/10/15 11:12:31;;;;;;;9.80;6.85;;;19.80;99.90;;;;;;5013887;28;25062;-75
2022/10/15 11:15:24;;;;;;;13.70;7.88;;;19.70;99.90;;;;;;5006368;28;25160;-74
2022/10/15 11:18:08;;;;;;;15.38;9.10;;;19.90;99.90;;;;;;5017695;28;25063;-76
2022/10/15 11:21:11;;;;;;;14.00;8.15;;;19.90;99.90;;;;;;5012136;28;25149;-74
2022/10/15 11:23:49;;;;;;;16.80;9.10;;;20.00;99.90;;;;;;5014287;28;25090;-73
2022/10/15 11:27:05;;;;;;;14.88;9.43;;;20.00;99.90;;;;;;5011900;28;25085;-73
2022/10/15 11:29:49;;;;;;;14.43;9.65;;;20.10;99.90;;;;;;4973951;28;25083;-75
2022/10/15 11:32:35;;;;;;;14.27;8.65;;;20.20;99.90;;;;;;5006082;28;25061;-74
2022/10/15 11:35:29;;;;;;;16.95;9.68;;;20.30;99.90;;;;;;5015815;28;25081;-74
2022/10/15 11:38:24;;;;;;;15.55;11.05;;;20.30;99.90;;;;;;5014059;28;25071;-76
2022/10/15 11:41:05;;;;;;;20.45;10.32;;;20.40;99.90;;;;;;5019605;28;25094;-74
2022/10/15 11:43:42;;;;;;;16.58;10.85;;;20.40;99.90;;;;;;5013813;28;25073;-75
2022/10/15 11:46:44;;;;;;;16.30;9.55;;;20.50;99.90;;;;;;5013855;28;25068;-75
2022/10/15 11:49:22;;;;;;;16.23;10.07;;;20.60;99.90;;;;;;5005784;28;25140;-75
2022/10/15 11:52:28;;;;;;;14.73;8.63;;;20.70;99.90;;;;;;5018745;28;25063;-74
2022/10/15 11:55:01;;;;;;;12.30;8.57;;;20.80;99.90;;;;;;5002425;28;25150;-74
2022/10/15 11:57:30;;;;;;;14.98;8.40;;;20.90;99.90;;;;;;5017430;28;25111;-73
2022/10/15 12:00:01;;;;;;;12.30;7.95;;;21.00;99.90;;;;;;5014790;28;25086;-73
2022/10/15 12:02:36;;;;;;;13.93;8.15;;;21.10;99.90;;;;;;5018003;28;25124;-73
2022/10/15 12:05:09;;;;;;;12.15;7.38;;;21.30;99.90;;;;;;5020759;28;25066;-74
2022/10/15 12:07:43;;;;;;;11.25;6.90;;;21.20;99.90;;;;;;5016157;28;25150;-74
2022/10/15 12:10:12;;;;;;;11.20;7.18;;;21.30;99.90;;;;;;5013899;28;25066;-73
2022/10/15 12:13:04;;;;;;;13.65;7.15;;;21.30;99.90;;;;;;5018503;28;25136;-74
2022/10/15 12:15:46;;;;;;;11.90;6.82;;;21.30;99.90;;;;;;5005097;28;25078;-75
2022/10/15 12:18:30;;;;;;;;;;;21.30;99.90;;;;;;5027154;28;25157;-75
2022/10/15 12:20:57;;;;;;;8.88;6.13;;;21.30;99.90;;;;;;5021371;28;24084;-74
2022/10/15 12:23:37;;;;;;;9.30;6.55;;;21.30;99.90;;;;;;5024823;28;25161;-75
2022/10/15 12:26:24;;;;;;;8.57;5.82;;;21.40;99.90;;;;;;5021454;28;25117;-73
2022/10/15 12:28:52;;;;;;;10.65;5.97;;;21.20;99.90;;;;;;5024533;28;25137;-74
2022/10/15 12:31:19;;;;;;;10.68;6.55;;;21.10;99.90;;;;;;5025405;28;25050;-74
2022/10/15 12:33:53;;;;;;;8.25;5.50;;;21.20;99.90;;;;;;5018854;28;25070;-74
2022/10/15 12:36:27;;;;;;;7.70;5.18;;;21.10;99.90;;;;;;5022544;28;25065;-74
2022/10/15 12:39:07;;;;;;;7.68;5.03;;;21.10;99.90;;;;;;5026004;28;25057;-73
2022/10/15 12:41:47;;;;;;;7.40;4.78;;;21.00;99.90;;;;;;5024830;28;25136;-74
2022/10/15 12:44:31;;;;;;;8.18;4.25;;;20.80;99.90;;;;;;5021898;28;25062;-73
2022/10/15 12:46:57;;;;;;;7.00;4.65;;;20.70;99.90;;;;;;5006033;28;25057;-73
2022/10/15 12:49:26;;;;;;;8.75;4.72;;;20.60;99.90;;;;;;5009549;28;25064;-74